sensor_id;sensor_type;location;lat;lon;timestamp;P1;durP1;ratioP1;P2;durP2;ratioP2
17283;SDS011;8760;52.248;20.952;2023-04-15T00:00:59;7.20;;;6.00;;
17283;SDS011;8760;52.248;20.952;2023-04-15T00:03:26;7.80;;;6.53;;
17283;SDS011;8760;52.248;20.952;2023-04-15T00:05:55;9.80;;;7.33;;
17283;SDS011;8760;52.248;20.952;2023-04-15T00:08:22;9.33;;;6.87;;
17283;SDS011;8760;52.248;20.952;2023-04-15T00:10:49;8.57;;;6.73;;
17283;SDS011;8760;52.248;20.952;2023-04-15T00:13:16;9.50;;;6.70;;
17283;SDS011;8760;52.248;20.952;2023-04-15T00:15:43;8.13;;;6.90;;
17283;SDS011;8760;52.248;20.952;2023-04-15T00:18:10;8.37;;;6.67;;
17283;SDS011;8760;52.248;20.952;2023-04-15T00:20:37;7.20;;;6.50;;
17283;SDS011;8760;52.248;20.952;2023-04-15T00:23:05;8.53;;;7.17;;
17283;SDS011;8760;52.248;20.952;2023-04-15T00:25:32;9.63;;;7.27;;
17283;SDS011;8760;52.248;20.952;2023-04-15T00:27:59;9.53;;;6.60;;
17283;SDS011;8760;52.248;20.952;2023-04-15T00:30:26;8.57;;;7.27;;
17283;SDS011;8760;52.248;20.952;2023-04-15T00:32:53;9.33;;;7.60;;
17283;SDS011;8760;52.248;20.952;2023-04-15T00:35:20;8.70;;;7.30;;
17283;SDS011;8760;52.248;20.952;2023-04-15T00:37:48;9.53;;;7.87;;
17283;SDS011;8760;52.248;20.952;2023-04-15T00:40:17;10.17;;;7.60;;
17283;SDS011;8760;52.248;20.952;2023-04-15T00:42:46;8.60;;;7.70;;
17283;SDS011;8760;52.248;20.952;2023-04-15T00:45:13;8.47;;;7.13;;
17283;SDS011;8760;52.248;20.952;2023-04-15T00:47:40;9.63;;;7.47;;
17283;SDS011;8760;52.248;20.952;2023-04-15T00:50:09;7.30;;;6.57;;
17283;SDS011;8760;52.248;20.952;2023-04-15T00:52:36;8.60;;;7.27;;
17283;SDS011;8760;52.248;20.952;2023-04-15T00:55:04;9.03;;;7.17;;
17283;SDS011;8760;52.248;20.952;2023-04-15T00:57:33;8.93;;;7.30;;
17283;SDS011;8760;52.248;20.952;2023-04-15T01:00:01;8.17;;;7.37;;
17283;SDS011;8760;52.248;20.952;2023-04-15T01:02:29;10.00;;;8.03;;
17283;SDS011;8760;52.248;20.952;2023-04-15T01:04:57;8.93;;;7.63;;
17283;SDS011;8760;52.248;20.952;2023-04-15T01:07:24;7.93;;;7.00;;
17283;SDS011;8760;52.248;20.952;2023-04-15T01:09:51;10.37;;;7.70;;
17283;SDS011;8760;52.248;20.952;2023-04-15T01:12:18;10.37;;;7.87;;
17283;SDS011;8760;52.248;20.952;2023-04-15T01:14:47;9.37;;;7.93;;
17283;SDS011;8760;52.248;20.952;2023-04-15T01:17:14;9.33;;;7.30;;
17283;SDS011;8760;52.248;20.952;2023-04-15T01:19:41;8.80;;;7.53;;
17283;SDS011;8760;52.248;20.952;2023-04-15T01:22:08;9.73;;;7.90;;
17283;SDS011;8760;52.248;20.952;2023-04-15T01:24:35;8.87;;;7.37;;
17283;SDS011;8760;52.248;20.952;2023-04-15T01:27:04;10.67;;;7.87;;
17283;SDS011;8760;52.248;20.952;2023-04-15T01:29:32;9.43;;;7.67;;
17283;SDS011;8760;52.248;20.952;2023-04-15T01:32:02;9.13;;;7.30;;
17283;SDS011;8760;52.248;20.952;2023-04-15T01:34:29;8.67;;;7.73;;
17283;SDS011;8760;52.248;20.952;2023-04-15T01:36:56;9.67;;;8.57;;
17283;SDS011;8760;52.248;20.952;2023-04-15T01:39:23;11.10;;;8.80;;
17283;SDS011;8760;52.248;20.952;2023-04-15T01:41:50;9.93;;;8.50;;
17283;SDS011;8760;52.248;20.952;2023-04-15T01:44:18;10.57;;;8.30;;
17283;SDS011;8760;52.248;20.952;2023-04-15T01:46:45;10.37;;;8.67;;
17283;SDS011;8760;52.248;20.952;2023-04-15T01:49:12;9.63;;;8.67;;
17283;SDS011;8760;52.248;20.952;2023-04-15T01:51:39;10.63;;;9.13;;
17283;SDS011;8760;52.248;20.952;2023-04-15T01:54:06;10.33;;;9.07;;
17283;SDS011;8760;52.248;20.952;2023-04-15T01:56:33;11.20;;;8.87;;
17283;SDS011;8760;52.248;20.952;2023-04-15T01:59:00;13.20;;;10.20;;
17283;SDS011;8760;52.248;20.952;2023-04-15T02:01:29;11.73;;;9.60;;
17283;SDS011;8760;52.248;20.952;2023-04-15T02:03:56;10.83;;;9.50;;
17283;SDS011;8760;52.248;20.952;2023-04-15T02:06:22;12.83;;;9.53;;
17283;SDS011;8760;52.248;20.952;2023-04-15T02:08:49;11.53;;;10.33;;
17283;SDS011;8760;52.248;20.952;2023-04-15T02:11:16;13.03;;;9.90;;
17283;SDS011;8760;52.248;20.952;2023-04-15T02:13:43;11.63;;;10.30;;
17283;SDS011;8760;52.248;20.952;2023-04-15T02:16:14;12.07;;;10.77;;
17283;SDS011;8760;52.248;20.952;2023-04-15T02:18:44;12.80;;;10.37;;
17283;SDS011;8760;52.248;20.952;2023-04-15T02:21:11;13.17;;;9.50;;
17283;SDS011;8760;52.248;20.952;2023-04-15T02:23:37;14.93;;;10.67;;
17283;SDS011;8760;52.248;20.952;2023-04-15T02:26:04;16.07;;;10.83;;
17283;SDS011;8760;52.248;20.952;2023-04-15T02:28:32;12.53;;;10.23;;
17283;SDS011;8760;52.248;20.952;2023-04-15T02:30:59;14.17;;;10.17;;
17283;SDS011;8760;52.248;20.952;2023-04-15T02:33:26;13.70;;;11.00;;
17283;SDS011;8760;52.248;20.952;2023-04-15T02:35:54;12.30;;;11.10;;
17283;SDS011;8760;52.248;20.952;2023-04-15T02:38:21;12.00;;;10.50;;
17283;SDS011;8760;52.248;20.952;2023-04-15T02:40:48;13.00;;;10.93;;
17283;SDS011;8760;52.248;20.952;2023-04-15T02:43:15;14.37;;;10.50;;
17283;SDS011;8760;52.248;20.952;2023-04-15T02:45:42;13.00;;;10.97;;
17283;SDS011;8760;52.248;20.952;2023-04-15T02:48:10;12.60;;;10.40;;
17283;SDS011;8760;52.248;20.952;2023-04-15T02:50:37;12.47;;;10.53;;
17283;SDS011;8760;52.248;20.952;2023-04-15T02:53:06;11.90;;;10.60;;
17283;SDS011;8760;52.248;20.952;2023-04-15T02:55:33;13.37;;;10.97;;
17283;SDS011;8760;52.248;20.952;2023-04-15T02:57:59;14.47;;;10.53;;
17283;SDS011;8760;52.248;20.952;2023-04-15T03:03:48;12.23;;;10.90;;
17283;SDS011;8760;52.248;20.952;2023-04-15T03:06:15;13.47;;;10.90;;
17283;SDS011;8760;52.248;20.952;2023-04-15T03:08:43;14.67;;;13.07;;
17283;SDS011;8760;52.248;20.952;2023-04-15T03:11:10;12.90;;;10.87;;
17283;SDS011;8760;52.248;20.952;2023-04-15T03:13:38;13.03;;;11.07;;
17283;SDS011;8760;52.248;20.952;2023-04-15T03:16:06;12.57;;;11.23;;
17283;SDS011;8760;52.248;20.952;2023-04-15T03:18:33;13.20;;;10.33;;
17283;SDS011;8760;52.248;20.952;2023-04-15T03:21:00;14.17;;;10.83;;
17283;SDS011;8760;52.248;20.952;2023-04-15T03:23:27;12.97;;;11.10;;
17283;SDS011;8760;52.248;20.952;2023-04-15T03:26:00;12.50;;;10.73;;
17283;SDS011;8760;52.248;20.952;2023-04-15T03:28:27;12.83;;;10.57;;
17283;SDS011;8760;52.248;20.952;2023-04-15T03:30:54;12.40;;;9.60;;
17283;SDS011;8760;52.248;20.952;2023-04-15T03:33:21;11.77;;;9.90;;
17283;SDS011;8760;52.248;20.952;2023-04-15T03:35:49;12.10;;;9.93;;
17283;SDS011;8760;52.248;20.952;2023-04-15T03:38:16;11.90;;;10.70;;
17283;SDS011;8760;52.248;20.952;2023-04-15T03:40:44;12.70;;;10.20;;
17283;SDS011;8760;52.248;20.952;2023-04-15T03:43:13;12.93;;;10.20;;
17283;SDS011;8760;52.248;20.952;2023-04-15T03:45:40;11.40;;;9.87;;
17283;SDS011;8760;52.248;20.952;2023-04-15T03:48:07;11.87;;;10.20;;
17283;SDS011;8760;52.248;20.952;2023-04-15T03:50:34;12.20;;;9.53;;
17283;SDS011;8760;52.248;20.952;2023-04-15T03:53:01;11.43;;;10.10;;
17283;SDS011;8760;52.248;20.952;2023-04-15T03:55:28;11.33;;;10.23;;
17283;SDS011;8760;52.248;20.952;2023-04-15T03:57:55;12.60;;;10.80;;
17283;SDS011;8760;52.248;20.952;2023-04-15T04:00:23;11.93;;;10.27;;
17283;SDS011;8760;52.248;20.952;2023-04-15T04:02:50;11.60;;;10.10;;
17283;SDS011;8760;52.248;20.952;2023-04-15T04:05:17;10.93;;;9.40;;
17283;SDS011;8760;52.248;20.952;2023-04-15T04:07:43;11.70;;;9.90;;
17283;SDS011;8760;52.248;20.952;2023-04-15T04:10:11;11.53;;;10.33;;
17283;SDS011;8760;52.248;20.952;2023-04-15T04:12:38;12.53;;;10.00;;
17283;SDS011;8760;52.248;20.952;2023-04-15T04:15:05;12.57;;;10.40;;
17283;SDS011;8760;52.248;20.952;2023-04-15T04:17:34;11.17;;;9.70;;
17283;SDS011;8760;52.248;20.952;2023-04-15T04:20:01;12.37;;;10.00;;
17283;SDS011;8760;52.248;20.952;2023-04-15T04:22:29;11.23;;;9.87;;
17283;SDS011;8760;52.248;20.952;2023-04-15T04:24:56;10.93;;;9.83;;
17283;SDS011;8760;52.248;20.952;2023-04-15T04:27:24;11.67;;;9.17;;
17283;SDS011;8760;52.248;20.952;2023-04-15T04:29:51;11.80;;;10.50;;
17283;SDS011;8760;52.248;20.952;2023-04-15T04:32:18;13.80;;;10.40;;
17283;SDS011;8760;52.248;20.952;2023-04-15T04:34:46;10.80;;;9.67;;
17283;SDS011;8760;52.248;20.952;2023-04-15T04:37:13;11.87;;;9.67;;
17283;SDS011;8760;52.248;20.952;2023-04-15T04:39:40;12.57;;;9.40;;
17283;SDS011;8760;52.248;20.952;2023-04-15T04:42:07;14.80;;;9.83;;
17283;SDS011;8760;52.248;20.952;2023-04-15T04:44:34;12.07;;;9.53;;
17283;SDS011;8760;52.248;20.952;2023-04-15T04:47:01;15.17;;;9.70;;
17283;SDS011;8760;52.248;20.952;2023-04-15T04:49:29;12.13;;;10.27;;
17283;SDS011;8760;52.248;20.952;2023-04-15T04:51:57;13.50;;;10.07;;
17283;SDS011;8760;52.248;20.952;2023-04-15T04:54:24;11.53;;;10.00;;
17283;SDS011;8760;52.248;20.952;2023-04-15T04:56:51;10.67;;;9.50;;
17283;SDS011;8760;52.248;20.952;2023-04-15T04:59:18;10.50;;;9.40;;
17283;SDS011;8760;52.248;20.952;2023-04-15T05:01:45;11.47;;;9.43;;
17283;SDS011;8760;52.248;20.952;2023-04-15T05:04:12;12.30;;;9.83;;
17283;SDS011;8760;52.248;20.952;2023-04-15T05:06:39;11.77;;;10.40;;
17283;SDS011;8760;52.248;20.952;2023-04-15T05:09:07;10.67;;;9.27;;
17283;SDS011;8760;52.248;20.952;2023-04-15T05:11:34;12.40;;;9.40;;
17283;SDS011;8760;52.248;20.952;2023-04-15T05:14:01;14.57;;;10.50;;
17283;SDS011;8760;52.248;20.952;2023-04-15T05:16:28;12.70;;;9.40;;
17283;SDS011;8760;52.248;20.952;2023-04-15T05:18:55;10.40;;;9.30;;
17283;SDS011;8760;52.248;20.952;2023-04-15T05:21:22;10.60;;;9.30;;
17283;SDS011;8760;52.248;20.952;2023-04-15T05:23:49;11.67;;;9.93;;
17283;SDS011;8760;52.248;20.952;2023-04-15T05:26:17;12.67;;;10.03;;
17283;SDS011;8760;52.248;20.952;2023-04-15T05:28:45;10.87;;;9.33;;
17283;SDS011;8760;52.248;20.952;2023-04-15T05:31:13;12.70;;;10.37;;
17283;SDS011;8760;52.248;20.952;2023-04-15T05:33:40;11.40;;;10.00;;
17283;SDS011;8760;52.248;20.952;2023-04-15T05:36:07;15.87;;;9.50;;
17283;SDS011;8760;52.248;20.952;2023-04-15T05:38:34;11.17;;;9.83;;
17283;SDS011;8760;52.248;20.952;2023-04-15T05:41:01;10.53;;;9.07;;
17283;SDS011;8760;52.248;20.952;2023-04-15T05:43:30;12.00;;;9.30;;
17283;SDS011;8760;52.248;20.952;2023-04-15T05:45:57;10.77;;;9.40;;
17283;SDS011;8760;52.248;20.952;2023-04-15T05:48:23;10.83;;;9.57;;
17283;SDS011;8760;52.248;20.952;2023-04-15T05:50:50;12.47;;;9.23;;
17283;SDS011;8760;52.248;20.952;2023-04-15T05:53:17;10.03;;;8.23;;
17283;SDS011;8760;52.248;20.952;2023-04-15T05:55:44;10.20;;;8.50;;
17283;SDS011;8760;52.248;20.952;2023-04-15T05:58:11;10.10;;;9.07;;
17283;SDS011;8760;52.248;20.952;2023-04-15T06:00:39;11.57;;;9.10;;
17283;SDS011;8760;52.248;20.952;2023-04-15T06:03:06;11.87;;;8.87;;
17283;SDS011;8760;52.248;20.952;2023-04-15T06:05:33;10.13;;;8.87;;
17283;SDS011;8760;52.248;20.952;2023-04-15T06:08:00;10.83;;;9.17;;
17283;SDS011;8760;52.248;20.952;2023-04-15T06:10:27;11.80;;;8.50;;
17283;SDS011;8760;52.248;20.952;2023-04-15T06:12:54;9.13;;;8.20;;
17283;SDS011;8760;52.248;20.952;2023-04-15T06:15:21;10.57;;;8.60;;
17283;SDS011;8760;52.248;20.952;2023-04-15T06:17:50;9.37;;;8.20;;
17283;SDS011;8760;52.248;20.952;2023-04-15T06:20:16;10.60;;;8.50;;
17283;SDS011;8760;52.248;20.952;2023-04-15T06:22:43;10.57;;;8.90;;
17283;SDS011;8760;52.248;20.952;2023-04-15T06:25:10;11.57;;;9.23;;
17283;SDS011;8760;52.248;20.952;2023-04-15T06:27:38;10.23;;;8.30;;
17283;SDS011;8760;52.248;20.952;2023-04-15T06:30:05;10.10;;;8.67;;
17283;SDS011;8760;52.248;20.952;2023-04-15T06:32:33;9.77;;;7.90;;
17283;SDS011;8760;52.248;20.952;2023-04-15T06:35:02;10.80;;;7.97;;
17283;SDS011;8760;52.248;20.952;2023-04-15T06:37:29;9.13;;;8.00;;
17283;SDS011;8760;52.248;20.952;2023-04-15T06:39:56;10.43;;;8.83;;
17283;SDS011;8760;52.248;20.952;2023-04-15T06:42:23;9.37;;;7.93;;
17283;SDS011;8760;52.248;20.952;2023-04-15T06:44:50;10.63;;;7.80;;
17283;SDS011;8760;52.248;20.952;2023-04-15T06:47:17;9.47;;;8.03;;
17283;SDS011;8760;52.248;20.952;2023-04-15T06:49:44;9.63;;;8.30;;
17283;SDS011;8760;52.248;20.952;2023-04-15T06:52:12;9.33;;;7.87;;
17283;SDS011;8760;52.248;20.952;2023-04-15T06:54:40;10.77;;;7.60;;
17283;SDS011;8760;52.248;20.952;2023-04-15T06:57:07;10.43;;;7.83;;
17283;SDS011;8760;52.248;20.952;2023-04-15T06:59:34;8.87;;;7.33;;
17283;SDS011;8760;52.248;20.952;2023-04-15T07:02:01;8.70;;;7.20;;
17283;SDS011;8760;52.248;20.952;2023-04-15T07:04:28;8.63;;;6.90;;
17283;SDS011;8760;52.248;20.952;2023-04-15T07:06:55;8.27;;;6.83;;
17283;SDS011;8760;52.248;20.952;2023-04-15T07:09:24;9.10;;;7.83;;
17283;SDS011;8760;52.248;20.952;2023-04-15T07:11:50;8.23;;;7.27;;
17283;SDS011;8760;52.248;20.952;2023-04-15T07:14:17;7.90;;;7.07;;
17283;SDS011;8760;52.248;20.952;2023-04-15T07:16:44;7.97;;;6.60;;
17283;SDS011;8760;52.248;20.952;2023-04-15T07:19:11;10.53;;;7.40;;
17283;SDS011;8760;52.248;20.952;2023-04-15T07:21:38;7.57;;;6.50;;
17283;SDS011;8760;52.248;20.952;2023-04-15T07:24:05;8.07;;;6.37;;
17283;SDS011;8760;52.248;20.952;2023-04-15T07:26:35;9.80;;;6.60;;
17283;SDS011;8760;52.248;20.952;2023-04-15T07:29:02;7.50;;;6.30;;
17283;SDS011;8760;52.248;20.952;2023-04-15T07:31:29;8.50;;;7.30;;
17283;SDS011;8760;52.248;20.952;2023-04-15T07:33:56;7.33;;;6.10;;
17283;SDS011;8760;52.248;20.952;2023-04-15T07:36:23;7.10;;;6.10;;
17283;SDS011;8760;52.248;20.952;2023-04-15T07:38:51;7.73;;;6.47;;
17283;SDS011;8760;52.248;20.952;2023-04-15T07:41:17;7.47;;;6.10;;
17283;SDS011;8760;52.248;20.952;2023-04-15T07:43:46;7.13;;;5.77;;
17283;SDS011;8760;52.248;20.952;2023-04-15T07:46:13;6.77;;;6.03;;
17283;SDS011;8760;52.248;20.952;2023-04-15T07:48:40;8.13;;;5.83;;
17283;SDS011;8760;52.248;20.952;2023-04-15T07:51:07;7.93;;;6.63;;
17283;SDS011;8760;52.248;20.952;2023-04-15T07:53:34;7.13;;;6.43;;
17283;SDS011;8760;52.248;20.952;2023-04-15T07:56:02;6.63;;;5.97;;
17283;SDS011;8760;52.248;20.952;2023-04-15T07:58:29;6.20;;;5.60;;
17283;SDS011;8760;52.248;20.952;2023-04-15T08:00:58;7.53;;;6.20;;
17283;SDS011;8760;52.248;20.952;2023-04-15T08:03:25;6.77;;;6.13;;
17283;SDS011;8760;52.248;20.952;2023-04-15T08:05:51;16.97;;;5.57;;
17283;SDS011;8760;52.248;20.952;2023-04-15T08:08:19;7.07;;;5.83;;
17283;SDS011;8760;52.248;20.952;2023-04-15T08:10:46;6.70;;;5.57;;
17283;SDS011;8760;52.248;20.952;2023-04-15T08:13:13;7.47;;;5.47;;
17283;SDS011;8760;52.248;20.952;2023-04-15T08:15:40;6.63;;;4.90;;
17283;SDS011;8760;52.248;20.952;2023-04-15T08:18:08;6.53;;;4.80;;
17283;SDS011;8760;52.248;20.952;2023-04-15T08:20:36;7.67;;;4.53;;
17283;SDS011;8760;52.248;20.952;2023-04-15T08:23:03;6.47;;;4.70;;
17283;SDS011;8760;52.248;20.952;2023-04-15T08:25:30;7.43;;;5.10;;
17283;SDS011;8760;52.248;20.952;2023-04-15T08:27:57;5.17;;;4.67;;
17283;SDS011;8760;52.248;20.952;2023-04-15T08:30:24;6.73;;;4.73;;
17283;SDS011;8760;52.248;20.952;2023-04-15T08:32:52;5.67;;;5.13;;
17283;SDS011;8760;52.248;20.952;2023-04-15T08:35:20;5.07;;;4.57;;
17283;SDS011;8760;52.248;20.952;2023-04-15T08:37:47;5.90;;;4.23;;
17283;SDS011;8760;52.248;20.952;2023-04-15T08:40:14;6.53;;;3.90;;
17283;SDS011;8760;52.248;20.952;2023-04-15T08:42:43;8.53;;;4.07;;
17283;SDS011;8760;52.248;20.952;2023-04-15T08:45:11;5.50;;;4.33;;
17283;SDS011;8760;52.248;20.952;2023-04-15T08:47:38;6.27;;;4.30;;
17283;SDS011;8760;52.248;20.952;2023-04-15T08:50:07;4.97;;;4.00;;
17283;SDS011;8760;52.248;20.952;2023-04-15T08:52:37;5.10;;;4.03;;
17283;SDS011;8760;52.248;20.952;2023-04-15T08:55:05;4.20;;;3.80;;
17283;SDS011;8760;52.248;20.952;2023-04-15T08:57:34;5.77;;;4.13;;
17283;SDS011;8760;52.248;20.952;2023-04-15T09:00:04;4.50;;;4.10;;
17283;SDS011;8760;52.248;20.952;2023-04-15T09:02:33;4.40;;;3.60;;
17283;SDS011;8760;52.248;20.952;2023-04-15T09:05:00;4.63;;;4.00;;
17283;SDS011;8760;52.248;20.952;2023-04-15T09:07:32;7.80;;;4.00;;
17283;SDS011;8760;52.248;20.952;2023-04-15T09:10:01;5.60;;;4.00;;
17283;SDS011;8760;52.248;20.952;2023-04-15T09:12:28;3.67;;;3.27;;
17283;SDS011;8760;52.248;20.952;2023-04-15T09:14:56;4.07;;;3.13;;
17283;SDS011;8760;52.248;20.952;2023-04-15T09:17:23;4.03;;;3.13;;
17283;SDS011;8760;52.248;20.952;2023-04-15T09:19:52;3.73;;;3.40;;
17283;SDS011;8760;52.248;20.952;2023-04-15T09:22:33;4.00;;;3.07;;
17283;SDS011;8760;52.248;20.952;2023-04-15T09:25:03;4.47;;;3.60;;
17283;SDS011;8760;52.248;20.952;2023-04-15T09:27:50;3.60;;;3.30;;
17283;SDS011;8760;52.248;20.952;2023-04-15T09:30:18;6.47;;;3.83;;
17283;SDS011;8760;52.248;20.952;2023-04-15T09:32:49;4.37;;;3.27;;
17283;SDS011;8760;52.248;20.952;2023-04-15T09:35:16;4.27;;;3.20;;
17283;SDS011;8760;52.248;20.952;2023-04-15T09:37:43;3.73;;;3.20;;
17283;SDS011;8760;52.248;20.952;2023-04-15T09:40:12;3.57;;;3.27;;
17283;SDS011;8760;52.248;20.952;2023-04-15T09:42:52;6.20;;;3.17;;
17283;SDS011;8760;52.248;20.952;2023-04-15T09:45:20;3.80;;;3.37;;
17283;SDS011;8760;52.248;20.952;2023-04-15T09:47:48;4.13;;;3.00;;
17283;SDS011;8760;52.248;20.952;2023-04-15T09:50:17;4.03;;;3.00;;
17283;SDS011;8760;52.248;20.952;2023-04-15T09:52:45;3.10;;;2.80;;
17283;SDS011;8760;52.248;20.952;2023-04-15T09:55:14;2.80;;;2.57;;
17283;SDS011;8760;52.248;20.952;2023-04-15T09:57:44;3.43;;;3.10;;
17283;SDS011;8760;52.248;20.952;2023-04-15T10:00:12;3.43;;;3.00;;
17283;SDS011;8760;52.248;20.952;2023-04-15T10:02:40;3.10;;;2.80;;
17283;SDS011;8760;52.248;20.952;2023-04-15T10:05:09;3.77;;;3.23;;
17283;SDS011;8760;52.248;20.952;2023-04-15T10:07:36;3.40;;;3.10;;
17283;SDS011;8760;52.248;20.952;2023-04-15T10:10:05;3.23;;;2.93;;
17283;SDS011;8760;52.248;20.952;2023-04-15T10:12:34;3.97;;;3.20;;
17283;SDS011;8760;52.248;20.952;2023-04-15T10:15:03;3.63;;;3.27;;
17283;SDS011;8760;52.248;20.952;2023-04-15T10:17:32;5.80;;;3.20;;
17283;SDS011;8760;52.248;20.952;2023-04-15T10:20:01;3.57;;;3.27;;
17283;SDS011;8760;52.248;20.952;2023-04-15T10:22:28;4.20;;;3.40;;
17283;SDS011;8760;52.248;20.952;2023-04-15T10:24:56;3.50;;;3.20;;
17283;SDS011;8760;52.248;20.952;2023-04-15T10:27:25;3.50;;;2.90;;
17283;SDS011;8760;52.248;20.952;2023-04-15T10:29:53;5.33;;;2.93;;
17283;SDS011;8760;52.248;20.952;2023-04-15T10:32:21;3.33;;;3.03;;
17283;SDS011;8760;52.248;20.952;2023-04-15T10:34:50;3.57;;;2.93;;
17283;SDS011;8760;52.248;20.952;2023-04-15T10:37:19;2.73;;;2.43;;
17283;SDS011;8760;52.248;20.952;2023-04-15T10:39:47;4.07;;;2.90;;
17283;SDS011;8760;52.248;20.952;2023-04-15T10:42:15;3.40;;;3.10;;
17283;SDS011;8760;52.248;20.952;2023-04-15T10:44:44;2.97;;;2.73;;
17283;SDS011;8760;52.248;20.952;2023-04-15T10:47:17;4.00;;;3.27;;
17283;SDS011;8760;52.248;20.952;2023-04-15T10:49:46;6.07;;;3.43;;
17283;SDS011;8760;52.248;20.952;2023-04-15T10:52:15;3.70;;;3.40;;
17283;SDS011;8760;52.248;20.952;2023-04-15T10:54:43;3.33;;;3.00;;
17283;SDS011;8760;52.248;20.952;2023-04-15T10:57:14;3.53;;;2.70;;
17283;SDS011;8760;52.248;20.952;2023-04-15T10:59:59;4.23;;;2.80;;
17283;SDS011;8760;52.248;20.952;2023-04-15T11:02:44;3.10;;;2.80;;
17283;SDS011;8760;52.248;20.952;2023-04-15T11:05:12;3.33;;;3.03;;
17283;SDS011;8760;52.248;20.952;2023-04-15T11:07:45;4.07;;;2.80;;
17283;SDS011;8760;52.248;20.952;2023-04-15T11:13:23;5.53;;;3.77;;
17283;SDS011;8760;52.248;20.952;2023-04-15T11:15:57;4.97;;;3.40;;
17283;SDS011;8760;52.248;20.952;2023-04-15T11:18:27;6.07;;;3.30;;
17283;SDS011;8760;52.248;20.952;2023-04-15T11:20:56;4.73;;;3.03;;
17283;SDS011;8760;52.248;20.952;2023-04-15T11:23:32;3.17;;;2.80;;
17283;SDS011;8760;52.248;20.952;2023-04-15T11:26:02;6.27;;;3.03;;
17283;SDS011;8760;52.248;20.952;2023-04-15T11:28:33;3.70;;;2.60;;
17283;SDS011;8760;52.248;20.952;2023-04-15T11:31:07;6.80;;;2.50;;
17283;SDS011;8760;52.248;20.952;2023-04-15T11:33:37;4.27;;;2.73;;
17283;SDS011;8760;52.248;20.952;2023-04-15T11:36:10;4.70;;;2.40;;
17283;SDS011;8760;52.248;20.952;2023-04-15T11:38:41;4.23;;;2.60;;
17283;SDS011;8760;52.248;20.952;2023-04-15T11:41:08;4.37;;;2.70;;
17283;SDS011;8760;52.248;20.952;2023-04-15T11:43:36;6.07;;;3.07;;
17283;SDS011;8760;52.248;20.952;2023-04-15T11:46:03;3.00;;;2.60;;
17283;SDS011;8760;52.248;20.952;2023-04-15T11:48:30;4.43;;;2.50;;
17283;SDS011;8760;52.248;20.952;2023-04-15T11:51:01;3.47;;;2.67;;
17283;SDS011;8760;52.248;20.952;2023-04-15T11:53:36;4.37;;;2.97;;
17283;SDS011;8760;52.248;20.952;2023-04-15T11:56:05;4.50;;;2.73;;
17283;SDS011;8760;52.248;20.952;2023-04-15T11:58:33;3.10;;;2.50;;
17283;SDS011;8760;52.248;20.952;2023-04-15T12:01:05;4.30;;;3.40;;
17283;SDS011;8760;52.248;20.952;2023-04-15T12:03:42;3.43;;;3.10;;
17283;SDS011;8760;52.248;20.952;2023-04-15T12:06:13;6.13;;;3.40;;
17283;SDS011;8760;52.248;20.952;2023-04-15T12:08:49;4.30;;;3.20;;
17283;SDS011;8760;52.248;20.952;2023-04-15T12:11:28;4.30;;;3.60;;
17283;SDS011;8760;52.248;20.952;2023-04-15T12:13:57;3.97;;;3.33;;
17283;SDS011;8760;52.248;20.952;2023-04-15T12:16:28;3.93;;;3.50;;
17283;SDS011;8760;52.248;20.952;2023-04-15T12:18:56;4.77;;;3.70;;
17283;SDS011;8760;52.248;20.952;2023-04-15T12:21:26;6.73;;;3.93;;
17283;SDS011;8760;52.248;20.952;2023-04-15T12:24:00;3.17;;;2.67;;
17283;SDS011;8760;52.248;20.952;2023-04-15T12:26:30;4.53;;;3.60;;
17283;SDS011;8760;52.248;20.952;2023-04-15T12:28:59;3.07;;;2.80;;
17283;SDS011;8760;52.248;20.952;2023-04-15T12:31:27;4.00;;;3.57;;
17283;SDS011;8760;52.248;20.952;2023-04-15T12:33:55;4.20;;;3.60;;
17283;SDS011;8760;52.248;20.952;2023-04-15T12:36:22;4.70;;;3.03;;
17283;SDS011;8760;52.248;20.952;2023-04-15T12:38:50;3.93;;;3.17;;
17283;SDS011;8760;52.248;20.952;2023-04-15T12:41:18;3.30;;;3.00;;
17283;SDS011;8760;52.248;20.952;2023-04-15T12:43:46;3.20;;;2.77;;
17283;SDS011;8760;52.248;20.952;2023-04-15T12:46:13;3.50;;;3.10;;
17283;SDS011;8760;52.248;20.952;2023-04-15T12:48:40;3.70;;;3.17;;
17283;SDS011;8760;52.248;20.952;2023-04-15T12:51:08;3.37;;;3.07;;
17283;SDS011;8760;52.248;20.952;2023-04-15T12:53:35;4.03;;;3.63;;
17283;SDS011;8760;52.248;20.952;2023-04-15T12:56:03;4.67;;;3.53;;
17283;SDS011;8760;52.248;20.952;2023-04-15T12:58:31;4.90;;;3.43;;
17283;SDS011;8760;52.248;20.952;2023-04-15T13:00:58;5.50;;;3.70;;
17283;SDS011;8760;52.248;20.952;2023-04-15T13:03:25;5.03;;;3.90;;
17283;SDS011;8760;52.248;20.952;2023-04-15T13:05:52;4.63;;;3.93;;
17283;SDS011;8760;52.248;20.952;2023-04-15T13:08:19;7.03;;;3.83;;
17283;SDS011;8760;52.248;20.952;2023-04-15T13:10:46;5.00;;;3.43;;
17283;SDS011;8760;52.248;20.952;2023-04-15T13:13:15;5.43;;;3.00;;
17283;SDS011;8760;52.248;20.952;2023-04-15T13:15:41;4.97;;;3.30;;
17283;SDS011;8760;52.248;20.952;2023-04-15T13:18:10;4.27;;;3.03;;
17283;SDS011;8760;52.248;20.952;2023-04-15T13:20:37;5.57;;;3.67;;
17283;SDS011;8760;52.248;20.952;2023-04-15T13:23:11;6.97;;;4.20;;
17283;SDS011;8760;52.248;20.952;2023-04-15T13:25:38;4.70;;;3.20;;
17283;SDS011;8760;52.248;20.952;2023-04-15T13:28:05;5.20;;;2.80;;
17283;SDS011;8760;52.248;20.952;2023-04-15T13:30:33;4.30;;;3.27;;
17283;SDS011;8760;52.248;20.952;2023-04-15T13:33:02;5.60;;;3.20;;
17283;SDS011;8760;52.248;20.952;2023-04-15T13:35:30;3.90;;;3.00;;
17283;SDS011;8760;52.248;20.952;2023-04-15T13:37:58;3.30;;;2.50;;
17283;SDS011;8760;52.248;20.952;2023-04-15T13:40:25;4.03;;;2.60;;
17283;SDS011;8760;52.248;20.952;2023-04-15T13:42:52;2.77;;;2.40;;
17283;SDS011;8760;52.248;20.952;2023-04-15T13:45:19;3.13;;;2.37;;
17283;SDS011;8760;52.248;20.952;2023-04-15T13:47:47;2.80;;;2.23;;
17283;SDS011;8760;52.248;20.952;2023-04-15T13:50:14;3.37;;;2.57;;
17283;SDS011;8760;52.248;20.952;2023-04-15T13:52:41;3.30;;;2.20;;
17283;SDS011;8760;52.248;20.952;2023-04-15T13:55:08;2.87;;;2.30;;
17283;SDS011;8760;52.248;20.952;2023-04-15T13:57:35;2.10;;;1.90;;
17283;SDS011;8760;52.248;20.952;2023-04-15T14:00:03;2.40;;;1.93;;
17283;SDS011;8760;52.248;20.952;2023-04-15T14:02:31;2.30;;;2.07;;
17283;SDS011;8760;52.248;20.952;2023-04-15T14:04:59;2.60;;;1.73;;
17283;SDS011;8760;52.248;20.952;2023-04-15T14:07:27;1.70;;;1.60;;
17283;SDS011;8760;52.248;20.952;2023-04-15T14:09:54;1.90;;;1.80;;
17283;SDS011;8760;52.248;20.952;2023-04-15T14:12:21;2.03;;;1.80;;
17283;SDS011;8760;52.248;20.952;2023-04-15T14:14:48;3.67;;;2.07;;
17283;SDS011;8760;52.248;20.952;2023-04-15T14:17:15;2.57;;;2.00;;
17283;SDS011;8760;52.248;20.952;2023-04-15T14:19:42;1.97;;;1.80;;
17283;SDS011;8760;52.248;20.952;2023-04-15T14:22:10;2.03;;;1.83;;
17283;SDS011;8760;52.248;20.952;2023-04-15T14:24:37;1.73;;;1.63;;
17283;SDS011;8760;52.248;20.952;2023-04-15T14:27:05;2.93;;;2.10;;
17283;SDS011;8760;52.248;20.952;2023-04-15T14:29:32;2.50;;;1.93;;
17283;SDS011;8760;52.248;20.952;2023-04-15T14:31:59;5.37;;;2.10;;
17283;SDS011;8760;52.248;20.952;2023-04-15T14:34:26;5.20;;;2.33;;
17283;SDS011;8760;52.248;20.952;2023-04-15T14:36:53;2.20;;;2.00;;
17283;SDS011;8760;52.248;20.952;2023-04-15T14:39:21;2.37;;;2.00;;
17283;SDS011;8760;52.248;20.952;2023-04-15T14:41:48;2.47;;;2.17;;
17283;SDS011;8760;52.248;20.952;2023-04-15T14:44:15;1.93;;;1.63;;
17283;SDS011;8760;52.248;20.952;2023-04-15T14:46:42;1.93;;;1.73;;
17283;SDS011;8760;52.248;20.952;2023-04-15T14:49:09;2.70;;;1.57;;
17283;SDS011;8760;52.248;20.952;2023-04-15T14:51:36;2.37;;;1.60;;